Sublette, Illinois
Current Conditions -  °F | °C
As of 3:55 PM on Tuesday 25 Nov 2014 (Local Time) from KRPJ Reporting Station
Broken Clouds Broken Clouds  
Wind Chill:   Ceiling: 1400
Heat Index: 19°   Visibility: 10mi
Dew Point: 16°   Wind: 8mph
Humidity: 86%   Direction: 240°WSW
Pressure: 30.16"   Gusts: NA
Location:  41.64°N, 89.23°W
Report Text: KRPJ 252155Z AUTO 24007KT 10SM BKN014 M07/M09 A3016 RMK AO2 T10701090
Loading
Personal Weather Stations






























Interactive Weather Map New forecast layout! Learn more

10-Day Weather Forecast

Advertisements
Track Severe Weather on mobile